createdAt,value
2023-01-13T00:01:33.588Z,99932.45
2023-01-13T00:04:02.057Z,99935.48
2023-01-13T00:06:30.597Z,99931.42
2023-01-13T00:08:59.161Z,99931.05
2023-01-13T00:11:28.147Z,99930.71
2023-01-13T00:13:56.596Z,99930.10
2023-01-13T00:16:25.144Z,99933.85
2023-01-13T00:18:53.676Z,99932.63
2023-01-13T00:21:24.666Z,99932.13
2023-01-13T00:23:55.529Z,99934.50
2023-01-13T00:26:30.959Z,99928.64
2023-01-13T00:29:00.407Z,99928.50
2023-01-13T00:31:30.251Z,99927.98
2023-01-13T00:34:00.770Z,99926.86
2023-01-13T00:36:31.098Z,99925.95
2023-01-13T00:38:59.955Z,99926.05
2023-01-13T00:41:29.528Z,99924.41
2023-01-13T00:43:58.109Z,99924.21
2023-01-13T00:46:26.554Z,99923.35
2023-01-13T00:48:55.105Z,99921.37
2023-01-13T00:51:23.674Z,99918.23
2023-01-13T00:53:52.773Z,99918.55
2023-01-13T00:56:39.298Z,99917.31
2023-01-13T00:59:12.782Z,99915.58
2023-01-13T01:01:42.342Z,99917.16
2023-01-13T01:04:11.708Z,99916.83
2023-01-13T01:06:40.437Z,99914.54
2023-01-13T01:09:13.319Z,99911.30
2023-01-13T01:11:42.767Z,99910.39
2023-01-13T01:14:13.667Z,99907.98
2023-01-13T01:16:42.599Z,99908.52
2023-01-13T01:19:11.071Z,99904.48
2023-01-13T01:21:39.718Z,99899.57
2023-01-13T01:24:08.647Z,99896.38
2023-01-13T01:26:37.145Z,99892.45
2023-01-13T01:29:05.637Z,99887.20
2023-01-13T01:31:34.541Z,99889.14
2023-01-13T01:34:03.142Z,99883.24
2023-01-13T01:36:31.889Z,99884.65
2023-01-13T01:39:01.446Z,99883.01
2023-01-13T01:41:33.585Z,99879.40
2023-01-13T01:44:09.077Z,99877.21
2023-01-13T01:46:43.763Z,99871.20
2023-01-13T01:49:32.925Z,99866.74
2023-01-13T01:52:27.902Z,99862.46
2023-01-13T01:55:10.877Z,99856.23
2023-01-13T01:57:43.122Z,99850.45
2023-01-13T02:00:12.555Z,99847.40
2023-01-13T02:02:44.113Z,99840.77
2023-01-13T02:05:13.330Z,99838.84
2023-01-13T02:07:44.894Z,99837.25
2023-01-13T02:10:21.405Z,99832.25
2023-01-13T02:12:51.131Z,99831.05
2023-01-13T02:16:03.329Z,99830.73
2023-01-13T02:19:00.131Z,99829.34
2023-01-13T02:21:43.323Z,99826.95
2023-01-13T02:24:45.392Z,99824.36
2023-01-13T02:27:51.615Z,99826.04
2023-01-13T02:30:59.614Z,99826.44
2023-01-13T02:33:46.534Z,99821.80
2023-01-13T02:36:21.703Z,99821.96
2023-01-13T02:39:09.028Z,99822.55
2023-01-13T02:41:59.506Z,99820.80
2023-01-13T02:44:52.408Z,99818.16
2023-01-13T02:47:29.405Z,99811.89
2023-01-13T02:50:02.623Z,99815.05
2023-01-13T02:53:03.806Z,99813.64
2023-01-13T02:55:40.908Z,99815.86
2023-01-13T02:58:14.286Z,99812.11
2023-01-13T03:00:44.170Z,99804.19
2023-01-13T03:03:12.783Z,99803.09
2023-01-13T03:05:44.670Z,99801.14
2023-01-13T03:08:31.379Z,99795.94
2023-01-13T03:11:12.173Z,99797.33
2023-01-13T03:13:41.933Z,99796.38
2023-01-13T03:16:41.166Z,99796.88
2023-01-13T03:19:38.120Z,99794.45
2023-01-13T03:22:21.135Z,99792.69
2023-01-13T03:25:11.016Z,99796.54
2023-01-13T03:28:07.659Z,99794.59
2023-01-13T03:30:53.809Z,99790.52
2023-01-13T03:33:25.722Z,99792.09
2023-01-13T03:36:00.217Z,99791.70
2023-01-13T03:38:34.060Z,99793.39
2023-01-13T03:41:41.397Z,99793.86
2023-01-13T03:44:23.261Z,99790.45
2023-01-13T03:47:13.298Z,99790.34
2023-01-13T03:50:06.523Z,99790.61
2023-01-13T03:52:44.848Z,99787.33
2023-01-13T03:55:30.780Z,99783.10
2023-01-13T03:58:10.728Z,99786.11
2023-01-13T04:00:52.432Z,99786.02
2023-01-13T04:03:29.809Z,99781.16
2023-01-13T04:06:12.380Z,99786.75
2023-01-13T04:08:53.147Z,99787.95
2023-01-13T04:11:34.632Z,99785.58
2023-01-13T04:14:04.983Z,99783.05
2023-01-13T04:16:33.650Z,99775.41
2023-01-13T04:19:02.939Z,99774.77
2023-01-13T04:21:31.529Z,99774.65
2023-01-13T04:23:59.974Z,99775.48
2023-01-13T04:26:28.545Z,99777.20
2023-01-13T04:28:56.938Z,99776.52
2023-01-13T04:31:25.510Z,99773.85
2023-01-13T04:33:54.305Z,99772.21
2023-01-13T04:36:27.889Z,99774.52
2023-01-13T04:38:56.487Z,99774.05
2023-01-13T04:41:25.298Z,99773.06
2023-01-13T04:43:53.684Z,99775.09
2023-01-13T04:46:22.200Z,99772.96
2023-01-13T04:48:50.633Z,99774.69
2023-01-13T04:51:19.275Z,99773.70
2023-01-13T04:53:47.613Z,99768.73
2023-01-13T04:56:16.174Z,99771.05
2023-01-13T04:58:44.869Z,99768.41
2023-01-13T05:01:13.433Z,99770.16
2023-01-13T05:03:41.865Z,99768.96
2023-01-13T05:06:10.839Z,99767.25
2023-01-13T05:08:39.310Z,99771.08
2023-01-13T05:11:27.660Z,99775.59
2023-01-13T05:14:14.629Z,99773.27
2023-01-13T05:17:01.347Z,99772.93
2023-01-13T05:19:32.576Z,99773.87
2023-01-13T05:22:21.099Z,99770.64
2023-01-13T05:25:10.047Z,99768.95
2023-01-13T05:27:38.355Z,99770.95
2023-01-13T05:30:07.821Z,99775.09
2023-01-13T05:32:36.343Z,99775.86
2023-01-13T05:35:05.464Z,99774.02
2023-01-13T05:37:34.008Z,99773.05
2023-01-13T05:40:21.939Z,99773.49
2023-01-13T05:43:20.511Z,99771.88
2023-01-13T05:46:00.458Z,99773.41
2023-01-13T05:48:41.039Z,99775.18
2023-01-13T05:51:11.698Z,99774.60
2023-01-13T05:53:43.521Z,99773.12
2023-01-13T05:56:12.193Z,99776.75
2023-01-13T05:58:40.663Z,99774.33
2023-01-13T06:01:10.480Z,99774.76
2023-01-13T06:03:46.162Z,99779.83
2023-01-13T06:06:16.232Z,99782.64
2023-01-13T06:08:44.812Z,99782.27
2023-01-13T06:11:13.489Z,99787.09
2023-01-13T06:13:44.345Z,99791.66
2023-01-13T06:16:13.568Z,99788.96
2023-01-13T06:18:42.321Z,99785.55
2023-01-13T06:21:14.279Z,99789.09
2023-01-13T06:23:43.502Z,99785.66
2023-01-13T06:26:18.396Z,99782.03
2023-01-13T06:28:47.737Z,99792.42
2023-01-13T06:31:17.570Z,99785.53
2023-01-13T06:33:53.497Z,99789.70
2023-01-13T06:36:45.641Z,99789.95
2023-01-13T06:39:20.805Z,99789.98
2023-01-13T06:42:12.085Z,99784.54
2023-01-13T06:44:40.972Z,99789.13
2023-01-13T06:47:12.218Z,99795.09
2023-01-13T06:49:41.358Z,99784.51
2023-01-13T06:52:10.303Z,99790.16
2023-01-13T06:54:40.804Z,99791.78
2023-01-13T06:57:09.418Z,99791.83
2023-01-13T06:59:37.914Z,99790.29
2023-01-13T07:02:07.606Z,99786.36
2023-01-13T07:04:36.811Z,99789.62
2023-01-13T07:07:05.905Z,99793.96
2023-01-13T07:09:35.426Z,99791.85
2023-01-13T07:12:07.500Z,99787.91
2023-01-13T07:14:57.045Z,99786.18
2023-01-13T07:17:30.051Z,99783.09
2023-01-13T07:20:00.174Z,99780.77
2023-01-13T07:22:29.030Z,99782.07
2023-01-13T07:24:59.239Z,99790.80
2023-01-13T07:27:29.692Z,99791.85
2023-01-13T07:29:59.329Z,99792.54
2023-01-13T07:32:28.533Z,99793.54
2023-01-13T07:35:05.700Z,99793.16
2023-01-13T07:37:36.618Z,99795.40
2023-01-13T07:40:06.292Z,99799.42
2023-01-13T07:42:53.549Z,99795.16
2023-01-13T07:45:21.973Z,99795.67
2023-01-13T07:47:54.699Z,99797.02
2023-01-13T07:50:24.015Z,99796.11
2023-01-13T07:52:52.475Z,99792.44
2023-01-13T07:55:21.033Z,99789.30
2023-01-13T07:57:49.675Z,99793.10
2023-01-13T08:00:18.742Z,99794.39
2023-01-13T08:02:47.257Z,99795.60
2023-01-13T08:05:16.925Z,99795.64
2023-01-13T08:07:45.260Z,99797.77
2023-01-13T08:10:14.098Z,99800.38
2023-01-13T08:13:00.938Z,99798.83
2023-01-13T08:15:30.139Z,99798.67
2023-01-13T08:17:59.733Z,99797.67
2023-01-13T08:20:28.541Z,99801.20
2023-01-13T08:23:00.889Z,99800.48
2023-01-13T08:25:30.498Z,99800.27
2023-01-13T08:28:00.551Z,99803.91
2023-01-13T08:30:29.449Z,99803.76
2023-01-13T08:32:58.485Z,99802.71
2023-01-13T08:35:27.101Z,99797.73
2023-01-13T08:37:55.537Z,99800.85
2023-01-13T08:40:24.081Z,99799.37
2023-01-13T08:42:54.208Z,99798.83
2023-01-13T08:45:22.884Z,99798.80
2023-01-13T08:47:51.721Z,99801.51
2023-01-13T08:50:20.646Z,99800.98
2023-01-13T08:52:49.083Z,99799.44
2023-01-13T08:55:17.541Z,99800.19
2023-01-13T08:57:46.518Z,99803.47
2023-01-13T09:00:17.422Z,99804.77
2023-01-13T09:02:46.025Z,99806.98
2023-01-13T09:05:17.632Z,99813.14
2023-01-13T09:07:46.153Z,99811.27
2023-01-13T09:10:14.737Z,99812.42
2023-01-13T09:13:01.842Z,99809.38
2023-01-13T09:15:30.535Z,99802.52
2023-01-13T09:17:59.059Z,99804.03
2023-01-13T09:20:28.245Z,99800.02
2023-01-13T09:22:56.670Z,99797.98
2023-01-13T09:25:25.179Z,99792.11
2023-01-13T09:27:53.671Z,99794.89
2023-01-13T09:30:22.325Z,99797.30
2023-01-13T09:33:11.101Z,99792.52
2023-01-13T09:35:39.560Z,99792.71
2023-01-13T09:38:08.312Z,99793.41
2023-01-13T09:40:40.559Z,99791.77
2023-01-13T09:43:38.831Z,99788.48
2023-01-13T09:46:49.942Z,99786.88
2023-01-13T09:49:23.202Z,99784.43
2023-01-13T09:51:54.411Z,99785.23
2023-01-13T09:54:32.696Z,99782.73
2023-01-13T09:57:01.703Z,99779.41
2023-01-13T09:59:36.662Z,99782.11
2023-01-13T10:02:20.531Z,99779.77
2023-01-13T10:05:28.760Z,99779.20
2023-01-13T10:08:12.922Z,99776.92
2023-01-13T10:10:49.527Z,99776.47
2023-01-13T10:13:20.558Z,99778.09
2023-01-13T10:16:04.497Z,99775.17
2023-01-13T10:19:05.887Z,99774.86
2023-01-13T10:22:11.727Z,99767.21
2023-01-13T10:24:43.147Z,99765.16
2023-01-13T10:27:23.500Z,99760.63
2023-01-13T10:29:52.063Z,99765.96
2023-01-13T10:32:21.318Z,99761.57
2023-01-13T10:34:52.642Z,99762.02
2023-01-13T10:37:24.923Z,99751.94
2023-01-13T10:40:02.532Z,99754.06
2023-01-13T10:42:32.066Z,99754.27
2023-01-13T10:45:01.550Z,99753.25
2023-01-13T10:47:33.363Z,99753.61
2023-01-13T10:50:06.728Z,99754.76
2023-01-13T10:52:40.212Z,99751.25
2023-01-13T10:55:38.700Z,99751.18
2023-01-13T10:58:17.678Z,99747.66
2023-01-13T11:00:46.951Z,99745.64
2023-01-13T11:03:20.082Z,99740.61
2023-01-13T11:05:57.294Z,99740.32
2023-01-13T11:08:29.542Z,99738.77
2023-01-13T11:11:00.012Z,99736.35
2023-01-13T11:14:04.105Z,99736.94
2023-01-13T11:16:34.103Z,99736.99
2023-01-13T11:19:13.204Z,99740.08
2023-01-13T11:21:56.644Z,99739.94
2023-01-13T11:24:45.434Z,99737.95
2023-01-13T11:27:24.779Z,99741.27
2023-01-13T11:30:05.469Z,99740.59
2023-01-13T11:32:44.940Z,99737.52
2023-01-13T11:35:58.989Z,99740.90
2023-01-13T11:38:40.891Z,99738.73
2023-01-13T11:41:23.537Z,99732.16
2023-01-13T11:43:55.207Z,99729.28
2023-01-13T11:46:28.180Z,99730.10
2023-01-13T11:48:57.992Z,99728.92
2023-01-13T11:51:37.885Z,99720.90
2023-01-13T11:54:48.859Z,99719.48
2023-01-13T11:57:33.239Z,99718.56
2023-01-13T12:00:19.794Z,99716.19
2023-01-13T12:03:32.037Z,99718.18
2023-01-13T12:06:13.457Z,99712.27
2023-01-13T12:09:05.240Z,99714.11
2023-01-13T12:12:20.594Z,99713.52
2023-01-13T12:15:20.445Z,99714.41
2023-01-13T12:17:54.188Z,99711.64
2023-01-13T12:20:26.063Z,99707.64
2023-01-13T12:23:03.579Z,99709.59
2023-01-13T12:25:44.171Z,99708.90
2023-01-13T12:33:41.903Z,99712.68
2023-01-13T16:38:46.565Z,99749.27
2023-01-13T21:08:11.429Z,99899.90
2023-01-13T21:54:19.163Z,99922.62
